Royal City, WA

5:09 AM PST on January 30, 2015 (GMT -0800)
Royal City WEST | Change Station
CLOSE
Current Station
Personal Weather Station
Location: Royal City, WA
Elevation: 1250 ft
Nearby Weather Stations

Elev 1250 ft 46.95 °N, 119.75 °W | Updated 24 seconds ago

Overcast
Overcast
36.9 °F
Feels Like 37 °F
N
1.3
Wind Variable Wind from North
Gusts 2.5 mph

Today
High -- | Low -- °F
--% Chance of Precip.
Yesterday
High -- | Low -- °F
Precip. -- in
7:25 AM 4:58 PM
Waxing Gibbous, 82% visible
Pressure 30.45 in
Visibility 3.0 miles
Clouds Overcast 300 ft
Windchill 37 °F
Dew Point 34 °F
Humidity 88%
Rainfall 0.00 in
Snow Depth Not available.
UV 0.0 out of 12
Pollen 3.60 out of 12
Air Quality Not available.
Flu Activity Not available.
METAR KMWH 301252Z AUTO 13006KT 3SM BR OVC003 02/01 A3041 RMK AO2 SLP310 T00170011

More Conditions Fewer Conditions

Pressure 30.45 in
Visibility 3.0 miles
Clouds Overcast 300 ft
Windchill 37 °F
Dew Point 34 °F
Humidity 88%
Rainfall 0.00 in
Snow Depth Not available.
UV 0.0 out of 12
Pollen 3.60 out of 12
Air Quality Not available.
Flu Activity Not available.
METAR KMWH 301252Z AUTO 13006KT 3SM BR OVC003 02/01 A3041 RMK AO2 SLP310 T00170011

More Conditions Fewer Conditions

10-Day Weather Forecast

Almanac

Astronomy

Jan. 30, 2015 Rise Set
Actual Time
Civil Twilight
Nautical Twilight
Astronomical Twilight
Moon
Length of Visible Light
Length of Day
Tomorrow will be .
, % of the Moon is Illuminated

Today's Extremes

State Highs State Lows

Community

WunderPhotos

Upload Photos

1,791,747 photos uploaded!

WunderBlogs® & News

Nearby

Air Quality

  Air Quality AQ Index Pollutant
Not available.

Snow Depth

Station Depth Elevation

Earthquake Activity

City Distance Mag. Time & Date
Minimum magnitude displayed is 2.5.

Coastal Water Temperatures

Place Temperature

Nearby Weather Stations